sensor_id;sensor_type;location;lat;lon;timestamp;temperature;humidity
51500;DHT22;39101;53.478;6.158;2022-09-09T00:01:37;15.30;99.90
51500;DHT22;39101;53.478;6.158;2022-09-09T00:04:30;15.30;99.90
51500;DHT22;39101;53.478;6.158;2022-09-09T00:07:13;15.20;99.90
51500;DHT22;39101;53.478;6.158;2022-09-09T00:09:47;15.20;99.90
51500;DHT22;39101;53.478;6.158;2022-09-09T00:12:31;15.20;99.90
51500;DHT22;39101;53.478;6.158;2022-09-09T00:15:41;15.20;99.90
51500;DHT22;39101;53.478;6.158;2022-09-09T00:20:49;15.20;99.90
51500;DHT22;39101;53.478;6.158;2022-09-09T00:23:35;15.10;99.90
51500;DHT22;39101;53.478;6.158;2022-09-09T00:26:10;15.20;99.90
51500;DHT22;39101;53.478;6.158;2022-09-09T00:31:30;15.10;99.90
51500;DHT22;39101;53.478;6.158;2022-09-09T00:36:37;15.00;99.90
51500;DHT22;39101;53.478;6.158;2022-09-09T00:39:04;15.10;99.90
51500;DHT22;39101;53.478;6.158;2022-09-09T00:44:25;15.10;99.90
51500;DHT22;39101;53.478;6.158;2022-09-09T00:57:29;15.10;99.90
51500;DHT22;39101;53.478;6.158;2022-09-09T01:00:22;15.10;99.90
51500;DHT22;39101;53.478;6.158;2022-09-09T01:06:20;15.10;99.90
51500;DHT22;39101;53.478;6.158;2022-09-09T01:11:22;15.10;99.90
51500;DHT22;39101;53.478;6.158;2022-09-09T01:13:56;15.10;99.90
51500;DHT22;39101;53.478;6.158;2022-09-09T01:16:25;15.00;99.90
51500;DHT22;39101;53.478;6.158;2022-09-09T01:18:53;15.00;99.90
51500;DHT22;39101;53.478;6.158;2022-09-09T01:24:31;15.00;99.90
51500;DHT22;39101;53.478;6.158;2022-09-09T01:27:02;15.00;99.90
51500;DHT22;39101;53.478;6.158;2022-09-09T01:29:30;15.00;99.90
51500;DHT22;39101;53.478;6.158;2022-09-09T01:31:57;15.00;99.90
51500;DHT22;39101;53.478;6.158;2022-09-09T01:34:27;14.90;99.90
51500;DHT22;39101;53.478;6.158;2022-09-09T01:36:57;14.90;99.90
51500;DHT22;39101;53.478;6.158;2022-09-09T01:39:23;14.90;99.90
51500;DHT22;39101;53.478;6.158;2022-09-09T01:41:49;14.90;99.90
51500;DHT22;39101;53.478;6.158;2022-09-09T01:44:15;14.80;99.90
51500;DHT22;39101;53.478;6.158;2022-09-09T01:46:41;14.80;99.90
51500;DHT22;39101;53.478;6.158;2022-09-09T01:49:07;14.80;99.90
51500;DHT22;39101;53.478;6.158;2022-09-09T01:51:34;14.80;99.90
51500;DHT22;39101;53.478;6.158;2022-09-09T01:54:02;14.80;99.90
51500;DHT22;39101;53.478;6.158;2022-09-09T01:56:51;14.70;99.90
51500;DHT22;39101;53.478;6.158;2022-09-09T01:59:48;14.70;99.90
51500;DHT22;39101;53.478;6.158;2022-09-09T02:05:30;14.70;99.90
51500;DHT22;39101;53.478;6.158;2022-09-09T02:08:09;14.70;99.90
51500;DHT22;39101;53.478;6.158;2022-09-09T02:13:17;14.70;99.90
51500;DHT22;39101;53.478;6.158;2022-09-09T02:16:07;14.70;99.90
51500;DHT22;39101;53.478;6.158;2022-09-09T02:18:47;14.60;99.90
51500;DHT22;39101;53.478;6.158;2022-09-09T02:21:14;14.60;99.90
51500;DHT22;39101;53.478;6.158;2022-09-09T02:23:42;14.60;99.90
51500;DHT22;39101;53.478;6.158;2022-09-09T02:26:10;14.60;99.90
51500;DHT22;39101;53.478;6.158;2022-09-09T02:28:38;14.60;99.90
51500;DHT22;39101;53.478;6.158;2022-09-09T02:31:05;14.60;99.90
51500;DHT22;39101;53.478;6.158;2022-09-09T02:33:38;14.60;99.90
51500;DHT22;39101;53.478;6.158;2022-09-09T02:36:07;14.60;99.90
51500;DHT22;39101;53.478;6.158;2022-09-09T02:38:38;14.50;99.90
51500;DHT22;39101;53.478;6.158;2022-09-09T02:41:06;14.50;99.90
51500;DHT22;39101;53.478;6.158;2022-09-09T02:43:33;14.40;99.90
51500;DHT22;39101;53.478;6.158;2022-09-09T02:51:41;14.30;99.90
51500;DHT22;39101;53.478;6.158;2022-09-09T02:56:40;14.30;99.90
51500;DHT22;39101;53.478;6.158;2022-09-09T02:59:07;14.30;99.90
51500;DHT22;39101;53.478;6.158;2022-09-09T03:01:33;14.30;99.90
51500;DHT22;39101;53.478;6.158;2022-09-09T03:03:58;14.30;99.90
51500;DHT22;39101;53.478;6.158;2022-09-09T03:06:24;14.30;99.90
51500;DHT22;39101;53.478;6.158;2022-09-09T03:08:50;14.30;99.90
51500;DHT22;39101;53.478;6.158;2022-09-09T03:11:17;14.30;99.90
51500;DHT22;39101;53.478;6.158;2022-09-09T03:13:43;14.30;99.90
51500;DHT22;39101;53.478;6.158;2022-09-09T03:16:09;14.30;99.90
51500;DHT22;39101;53.478;6.158;2022-09-09T03:18:34;14.30;99.90
51500;DHT22;39101;53.478;6.158;2022-09-09T03:21:00;14.30;99.90
51500;DHT22;39101;53.478;6.158;2022-09-09T03:23:26;14.30;99.90
51500;DHT22;39101;53.478;6.158;2022-09-09T03:25:52;14.30;99.90
51500;DHT22;39101;53.478;6.158;2022-09-09T03:28:22;14.30;99.90
51500;DHT22;39101;53.478;6.158;2022-09-09T03:30:48;14.30;99.90
51500;DHT22;39101;53.478;6.158;2022-09-09T03:33:14;14.30;99.90
51500;DHT22;39101;53.478;6.158;2022-09-09T03:35:46;14.30;99.90
51500;DHT22;39101;53.478;6.158;2022-09-09T03:38:14;14.30;99.90
51500;DHT22;39101;53.478;6.158;2022-09-09T03:40:39;14.30;99.90
51500;DHT22;39101;53.478;6.158;2022-09-09T03:43:05;14.30;99.90
51500;DHT22;39101;53.478;6.158;2022-09-09T03:45:30;14.30;99.90
51500;DHT22;39101;53.478;6.158;2022-09-09T03:47:56;14.30;99.90
51500;DHT22;39101;53.478;6.158;2022-09-09T03:50:22;14.30;99.90
51500;DHT22;39101;53.478;6.158;2022-09-09T03:52:49;14.20;99.90
51500;DHT22;39101;53.478;6.158;2022-09-09T03:55:15;14.30;99.90
51500;DHT22;39101;53.478;6.158;2022-09-09T03:57:40;14.20;99.90
51500;DHT22;39101;53.478;6.158;2022-09-09T04:00:07;14.30;99.90
51500;DHT22;39101;53.478;6.158;2022-09-09T04:02:33;14.30;99.90
51500;DHT22;39101;53.478;6.158;2022-09-09T04:04:58;14.30;99.90
51500;DHT22;39101;53.478;6.158;2022-09-09T04:07:25;14.30;99.90
51500;DHT22;39101;53.478;6.158;2022-09-09T04:09:52;14.30;99.90
51500;DHT22;39101;53.478;6.158;2022-09-09T04:12:19;14.40;99.90
51500;DHT22;39101;53.478;6.158;2022-09-09T04:14:46;14.30;99.90
51500;DHT22;39101;53.478;6.158;2022-09-09T04:17:12;14.40;99.90
51500;DHT22;39101;53.478;6.158;2022-09-09T04:19:37;14.30;99.90
51500;DHT22;39101;53.478;6.158;2022-09-09T04:22:03;14.40;99.90
51500;DHT22;39101;53.478;6.158;2022-09-09T04:24:29;14.40;99.90
51500;DHT22;39101;53.478;6.158;2022-09-09T04:26:55;14.30;99.90
51500;DHT22;39101;53.478;6.158;2022-09-09T04:29:21;14.30;99.90
51500;DHT22;39101;53.478;6.158;2022-09-09T04:31:46;14.30;99.90
51500;DHT22;39101;53.478;6.158;2022-09-09T04:34:12;14.30;99.90
51500;DHT22;39101;53.478;6.158;2022-09-09T04:36:37;14.30;99.90
51500;DHT22;39101;53.478;6.158;2022-09-09T04:39:05;14.20;99.90
51500;DHT22;39101;53.478;6.158;2022-09-09T04:41:31;14.30;99.90
51500;DHT22;39101;53.478;6.158;2022-09-09T04:43:57;14.30;99.90
51500;DHT22;39101;53.478;6.158;2022-09-09T04:46:23;14.40;99.90
51500;DHT22;39101;53.478;6.158;2022-09-09T04:48:49;14.40;99.90
51500;DHT22;39101;53.478;6.158;2022-09-09T04:51:15;14.40;99.90
51500;DHT22;39101;53.478;6.158;2022-09-09T04:53:41;14.50;99.90
51500;DHT22;39101;53.478;6.158;2022-09-09T04:56:12;14.50;99.90
51500;DHT22;39101;53.478;6.158;2022-09-09T04:58:39;14.60;99.90
51500;DHT22;39101;53.478;6.158;2022-09-09T05:03:39;14.50;99.90
51500;DHT22;39101;53.478;6.158;2022-09-09T05:06:10;14.60;99.90
51500;DHT22;39101;53.478;6.158;2022-09-09T05:08:37;14.60;99.90
51500;DHT22;39101;53.478;6.158;2022-09-09T05:11:13;14.60;99.90
51500;DHT22;39101;53.478;6.158;2022-09-09T05:13:39;14.60;99.90
51500;DHT22;39101;53.478;6.158;2022-09-09T05:16:05;14.60;99.90
51500;DHT22;39101;53.478;6.158;2022-09-09T05:18:31;14.60;99.90
51500;DHT22;39101;53.478;6.158;2022-09-09T05:21:00;14.60;99.90
51500;DHT22;39101;53.478;6.158;2022-09-09T05:23:25;14.60;99.90
51500;DHT22;39101;53.478;6.158;2022-09-09T05:25:56;14.60;99.90
51500;DHT22;39101;53.478;6.158;2022-09-09T05:28:23;14.50;99.90
51500;DHT22;39101;53.478;6.158;2022-09-09T05:31:00;14.50;99.90
51500;DHT22;39101;53.478;6.158;2022-09-09T05:33:29;14.50;99.90
51500;DHT22;39101;53.478;6.158;2022-09-09T05:35:56;14.50;99.90
51500;DHT22;39101;53.478;6.158;2022-09-09T05:38:22;14.50;99.90
51500;DHT22;39101;53.478;6.158;2022-09-09T05:40:51;14.50;99.90
51500;DHT22;39101;53.478;6.158;2022-09-09T05:43:18;14.50;99.90
51500;DHT22;39101;53.478;6.158;2022-09-09T05:45:46;14.50;99.90
51500;DHT22;39101;53.478;6.158;2022-09-09T05:48:14;14.50;99.90
51500;DHT22;39101;53.478;6.158;2022-09-09T05:50:41;14.60;99.90
51500;DHT22;39101;53.478;6.158;2022-09-09T05:53:08;14.60;99.90
51500;DHT22;39101;53.478;6.158;2022-09-09T05:55:34;14.60;99.90
51500;DHT22;39101;53.478;6.158;2022-09-09T05:58:00;14.70;99.90
51500;DHT22;39101;53.478;6.158;2022-09-09T06:00:26;14.70;99.90
51500;DHT22;39101;53.478;6.158;2022-09-09T06:02:53;14.70;99.90
51500;DHT22;39101;53.478;6.158;2022-09-09T06:05:19;14.80;99.90
51500;DHT22;39101;53.478;6.158;2022-09-09T06:07:45;14.80;99.90
51500;DHT22;39101;53.478;6.158;2022-09-09T06:10:13;14.80;99.90
51500;DHT22;39101;53.478;6.158;2022-09-09T06:12:39;14.80;99.90
51500;DHT22;39101;53.478;6.158;2022-09-09T06:15:05;14.80;99.90
51500;DHT22;39101;53.478;6.158;2022-09-09T06:17:31;14.90;99.90
51500;DHT22;39101;53.478;6.158;2022-09-09T06:19:57;15.00;99.90
51500;DHT22;39101;53.478;6.158;2022-09-09T06:22:23;15.10;99.90
51500;DHT22;39101;53.478;6.158;2022-09-09T06:24:48;15.10;99.90
51500;DHT22;39101;53.478;6.158;2022-09-09T06:27:14;15.00;99.90
51500;DHT22;39101;53.478;6.158;2022-09-09T06:29:39;15.00;99.90
51500;DHT22;39101;53.478;6.158;2022-09-09T06:32:05;15.00;99.90
51500;DHT22;39101;53.478;6.158;2022-09-09T06:34:34;15.00;99.90
51500;DHT22;39101;53.478;6.158;2022-09-09T06:37:01;15.00;99.90
51500;DHT22;39101;53.478;6.158;2022-09-09T06:39:26;15.10;99.90
51500;DHT22;39101;53.478;6.158;2022-09-09T06:41:52;15.10;99.90
51500;DHT22;39101;53.478;6.158;2022-09-09T06:44:19;15.20;99.90
51500;DHT22;39101;53.478;6.158;2022-09-09T06:46:44;15.20;99.90
51500;DHT22;39101;53.478;6.158;2022-09-09T06:49:13;15.30;99.90
51500;DHT22;39101;53.478;6.158;2022-09-09T06:51:39;15.30;99.90
51500;DHT22;39101;53.478;6.158;2022-09-09T06:54:10;15.40;99.90
51500;DHT22;39101;53.478;6.158;2022-09-09T06:56:41;15.40;99.90
51500;DHT22;39101;53.478;6.158;2022-09-09T06:59:08;15.50;99.90
51500;DHT22;39101;53.478;6.158;2022-09-09T07:01:37;15.50;99.90
51500;DHT22;39101;53.478;6.158;2022-09-09T07:04:04;15.60;99.90
51500;DHT22;39101;53.478;6.158;2022-09-09T07:06:34;15.70;99.90
51500;DHT22;39101;53.478;6.158;2022-09-09T07:09:03;15.80;99.90
51500;DHT22;39101;53.478;6.158;2022-09-09T07:11:39;15.80;99.90
51500;DHT22;39101;53.478;6.158;2022-09-09T07:14:06;15.80;99.90
51500;DHT22;39101;53.478;6.158;2022-09-09T07:16:33;15.70;99.90
51500;DHT22;39101;53.478;6.158;2022-09-09T07:18:59;15.70;99.90
51500;DHT22;39101;53.478;6.158;2022-09-09T07:21:26;15.70;99.90
51500;DHT22;39101;53.478;6.158;2022-09-09T07:23:53;15.70;99.90
51500;DHT22;39101;53.478;6.158;2022-09-09T07:26:22;15.70;99.90
51500;DHT22;39101;53.478;6.158;2022-09-09T07:28:48;15.70;99.90
51500;DHT22;39101;53.478;6.158;2022-09-09T07:31:16;15.70;99.90
51500;DHT22;39101;53.478;6.158;2022-09-09T07:33:43;15.70;99.90
51500;DHT22;39101;53.478;6.158;2022-09-09T07:36:17;15.70;99.90
51500;DHT22;39101;53.478;6.158;2022-09-09T07:38:48;15.60;99.90
51500;DHT22;39101;53.478;6.158;2022-09-09T07:41:24;15.70;99.90
51500;DHT22;39101;53.478;6.158;2022-09-09T07:43:51;15.70;99.90
51500;DHT22;39101;53.478;6.158;2022-09-09T07:46:20;15.70;99.90
51500;DHT22;39101;53.478;6.158;2022-09-09T07:48:48;15.70;99.90
51500;DHT22;39101;53.478;6.158;2022-09-09T07:51:19;15.70;99.90
51500;DHT22;39101;53.478;6.158;2022-09-09T07:53:46;15.70;99.90
51500;DHT22;39101;53.478;6.158;2022-09-09T07:56:17;15.70;99.90
51500;DHT22;39101;53.478;6.158;2022-09-09T07:58:45;15.70;99.90
51500;DHT22;39101;53.478;6.158;2022-09-09T08:01:16;15.60;99.90
51500;DHT22;39101;53.478;6.158;2022-09-09T08:03:44;15.60;99.90
51500;DHT22;39101;53.478;6.158;2022-09-09T08:06:11;15.60;99.90
51500;DHT22;39101;53.478;6.158;2022-09-09T08:08:38;15.70;99.90
51500;DHT22;39101;53.478;6.158;2022-09-09T08:11:12;15.70;99.90
51500;DHT22;39101;53.478;6.158;2022-09-09T08:13:41;15.90;99.90
51500;DHT22;39101;53.478;6.158;2022-09-09T08:16:13;16.00;99.90
51500;DHT22;39101;53.478;6.158;2022-09-09T08:18:39;16.00;99.90
51500;DHT22;39101;53.478;6.158;2022-09-09T08:21:07;16.00;99.90
51500;DHT22;39101;53.478;6.158;2022-09-09T08:23:34;16.10;99.90
51500;DHT22;39101;53.478;6.158;2022-09-09T08:26:15;16.20;99.90
51500;DHT22;39101;53.478;6.158;2022-09-09T08:28:41;16.20;99.90
51500;DHT22;39101;53.478;6.158;2022-09-09T08:31:13;16.20;99.90
51500;DHT22;39101;53.478;6.158;2022-09-09T08:33:39;16.30;99.90
51500;DHT22;39101;53.478;6.158;2022-09-09T08:36:08;16.20;99.90
51500;DHT22;39101;53.478;6.158;2022-09-09T08:38:35;16.20;99.90
51500;DHT22;39101;53.478;6.158;2022-09-09T08:41:11;16.40;99.90
51500;DHT22;39101;53.478;6.158;2022-09-09T08:43:43;16.40;99.90
51500;DHT22;39101;53.478;6.158;2022-09-09T08:46:29;16.50;99.90
51500;DHT22;39101;53.478;6.158;2022-09-09T08:49:24;16.50;99.90
51500;DHT22;39101;53.478;6.158;2022-09-09T08:51:55;16.60;99.90
51500;DHT22;39101;53.478;6.158;2022-09-09T08:54:22;16.70;99.90
51500;DHT22;39101;53.478;6.158;2022-09-09T08:56:48;16.80;99.90
51500;DHT22;39101;53.478;6.158;2022-09-09T08:59:17;16.90;99.90
51500;DHT22;39101;53.478;6.158;2022-09-09T09:04:38;16.90;99.90
51500;DHT22;39101;53.478;6.158;2022-09-09T09:12:16;16.80;99.90
51500;DHT22;39101;53.478;6.158;2022-09-09T09:14:44;16.90;99.90
51500;DHT22;39101;53.478;6.158;2022-09-09T09:17:14;16.90;99.90
51500;DHT22;39101;53.478;6.158;2022-09-09T09:19:41;16.90;99.90
51500;DHT22;39101;53.478;6.158;2022-09-09T09:25:05;16.90;99.90
51500;DHT22;39101;53.478;6.158;2022-09-09T09:30:29;16.90;99.90
51500;DHT22;39101;53.478;6.158;2022-09-09T09:33:13;17.00;99.90
51500;DHT22;39101;53.478;6.158;2022-09-09T09:35:40;17.00;99.90
51500;DHT22;39101;53.478;6.158;2022-09-09T09:38:20;17.10;99.90
51500;DHT22;39101;53.478;6.158;2022-09-09T09:40:55;17.10;99.90
51500;DHT22;39101;53.478;6.158;2022-09-09T09:43:37;17.10;99.90
51500;DHT22;39101;53.478;6.158;2022-09-09T09:46:05;17.20;99.90
51500;DHT22;39101;53.478;6.158;2022-09-09T09:48:42;17.20;99.90
51500;DHT22;39101;53.478;6.158;2022-09-09T09:51:10;17.30;99.90
51500;DHT22;39101;53.478;6.158;2022-09-09T09:53:38;17.30;99.90
51500;DHT22;39101;53.478;6.158;2022-09-09T09:56:06;17.30;99.90
51500;DHT22;39101;53.478;6.158;2022-09-09T10:01:38;17.40;99.90
51500;DHT22;39101;53.478;6.158;2022-09-09T10:04:20;17.50;99.90
51500;DHT22;39101;53.478;6.158;2022-09-09T10:06:47;17.50;99.90
51500;DHT22;39101;53.478;6.158;2022-09-09T10:09:28;17.60;99.90
51500;DHT22;39101;53.478;6.158;2022-09-09T10:17:39;17.60;99.90
51500;DHT22;39101;53.478;6.158;2022-09-09T10:20:14;17.60;99.90
51500;DHT22;39101;53.478;6.158;2022-09-09T10:22:47;17.60;99.90
51500;DHT22;39101;53.478;6.158;2022-09-09T10:25:38;17.60;99.90
51500;DHT22;39101;53.478;6.158;2022-09-09T10:31:13;17.70;99.90
51500;DHT22;39101;53.478;6.158;2022-09-09T10:36:22;17.80;99.90
51500;DHT22;39101;53.478;6.158;2022-09-09T10:39:10;17.90;99.90
51500;DHT22;39101;53.478;6.158;2022-09-09T10:55:20;18.30;99.90
51500;DHT22;39101;53.478;6.158;2022-09-09T10:57:58;18.40;99.90
51500;DHT22;39101;53.478;6.158;2022-09-09T11:00:41;18.50;99.90
51500;DHT22;39101;53.478;6.158;2022-09-09T11:03:18;18.60;99.90
51500;DHT22;39101;53.478;6.158;2022-09-09T11:06:01;18.40;99.90
51500;DHT22;39101;53.478;6.158;2022-09-09T11:08:31;18.50;99.90
51500;DHT22;39101;53.478;6.158;2022-09-09T11:11:00;18.40;99.90
51500;DHT22;39101;53.478;6.158;2022-09-09T11:21:52;18.30;99.90
51500;DHT22;39101;53.478;6.158;2022-09-09T11:24:26;18.20;99.90
51500;DHT22;39101;53.478;6.158;2022-09-09T11:27:19;18.20;99.90
51500;DHT22;39101;53.478;6.158;2022-09-09T11:30:18;18.10;99.90
51500;DHT22;39101;53.478;6.158;2022-09-09T11:33:09;18.10;99.90
51500;DHT22;39101;53.478;6.158;2022-09-09T11:40:41;18.10;99.90
51500;DHT22;39101;53.478;6.158;2022-09-09T11:43:27;18.00;99.90
51500;DHT22;39101;53.478;6.158;2022-09-09T11:45:55;18.00;99.90
51500;DHT22;39101;53.478;6.158;2022-09-09T11:48:42;18.00;99.90
51500;DHT22;39101;53.478;6.158;2022-09-09T11:51:13;18.00;99.90
51500;DHT22;39101;53.478;6.158;2022-09-09T11:59:05;17.90;99.90
51500;DHT22;39101;53.478;6.158;2022-09-09T12:01:42;17.90;99.90
51500;DHT22;39101;53.478;6.158;2022-09-09T12:06:50;17.80;99.90
51500;DHT22;39101;53.478;6.158;2022-09-09T12:19:40;18.00;99.90
51500;DHT22;39101;53.478;6.158;2022-09-09T12:22:17;18.00;99.90
51500;DHT22;39101;53.478;6.158;2022-09-09T12:27:37;18.00;99.90
51500;DHT22;39101;53.478;6.158;2022-09-09T12:30:14;18.00;99.90
51500;DHT22;39101;53.478;6.158;2022-09-09T12:32:40;18.00;99.90
51500;DHT22;39101;53.478;6.158;2022-09-09T12:35:22;17.90;99.90
51500;DHT22;39101;53.478;6.158;2022-09-09T12:37:52;17.90;99.90
51500;DHT22;39101;53.478;6.158;2022-09-09T12:40:40;17.80;99.90
51500;DHT22;39101;53.478;6.158;2022-09-09T12:43:21;17.90;99.90
51500;DHT22;39101;53.478;6.158;2022-09-09T12:45:49;17.90;99.90
51500;DHT22;39101;53.478;6.158;2022-09-09T12:48:28;17.90;99.90
51500;DHT22;39101;53.478;6.158;2022-09-09T12:50:55;18.00;99.90
51500;DHT22;39101;53.478;6.158;2022-09-09T12:53:33;18.00;99.90
51500;DHT22;39101;53.478;6.158;2022-09-09T12:56:02;18.00;99.90
51500;DHT22;39101;53.478;6.158;2022-09-09T12:58:29;18.10;99.90
51500;DHT22;39101;53.478;6.158;2022-09-09T13:00:59;18.20;99.90
51500;DHT22;39101;53.478;6.158;2022-09-09T13:03:26;18.10;99.90
51500;DHT22;39101;53.478;6.158;2022-09-09T13:05:53;18.20;99.90
51500;DHT22;39101;53.478;6.158;2022-09-09T13:08:19;18.10;99.90
51500;DHT22;39101;53.478;6.158;2022-09-09T13:10:54;18.10;99.90
51500;DHT22;39101;53.478;6.158;2022-09-09T13:13:26;18.00;99.90
51500;DHT22;39101;53.478;6.158;2022-09-09T13:15:57;18.10;99.90
51500;DHT22;39101;53.478;6.158;2022-09-09T13:18:29;18.20;99.90
51500;DHT22;39101;53.478;6.158;2022-09-09T13:20:56;18.20;99.90
51500;DHT22;39101;53.478;6.158;2022-09-09T13:23:27;18.30;99.90
51500;DHT22;39101;53.478;6.158;2022-09-09T13:26:06;18.30;99.90
51500;DHT22;39101;53.478;6.158;2022-09-09T13:28:44;18.40;99.90
51500;DHT22;39101;53.478;6.158;2022-09-09T13:31:29;18.50;99.90
51500;DHT22;39101;53.478;6.158;2022-09-09T13:33:55;18.50;99.90
51500;DHT22;39101;53.478;6.158;2022-09-09T13:36:33;18.60;99.90
51500;DHT22;39101;53.478;6.158;2022-09-09T13:39:02;18.60;99.90
51500;DHT22;39101;53.478;6.158;2022-09-09T13:41:34;18.60;99.90
51500;DHT22;39101;53.478;6.158;2022-09-09T13:44:01;18.60;99.90
51500;DHT22;39101;53.478;6.158;2022-09-09T13:46:34;18.60;99.90
51500;DHT22;39101;53.478;6.158;2022-09-09T13:54:00;18.60;99.90
51500;DHT22;39101;53.478;6.158;2022-09-09T13:56:26;18.60;99.90
51500;DHT22;39101;53.478;6.158;2022-09-09T13:58:52;18.70;99.90
51500;DHT22;39101;53.478;6.158;2022-09-09T14:01:18;18.80;99.90
51500;DHT22;39101;53.478;6.158;2022-09-09T14:03:43;18.80;99.90
51500;DHT22;39101;53.478;6.158;2022-09-09T14:06:10;18.80;99.90
51500;DHT22;39101;53.478;6.158;2022-09-09T14:08:36;18.80;99.90
51500;DHT22;39101;53.478;6.158;2022-09-09T14:11:06;18.80;99.90
51500;DHT22;39101;53.478;6.158;2022-09-09T14:13:33;18.80;99.90
51500;DHT22;39101;53.478;6.158;2022-09-09T14:15:58;18.80;99.90
51500;DHT22;39101;53.478;6.158;2022-09-09T14:18:24;18.80;99.90
51500;DHT22;39101;53.478;6.158;2022-09-09T14:20:51;18.70;99.90
51500;DHT22;39101;53.478;6.158;2022-09-09T14:23:16;18.70;99.90
51500;DHT22;39101;53.478;6.158;2022-09-09T14:25:43;18.60;99.90
51500;DHT22;39101;53.478;6.158;2022-09-09T14:28:13;18.60;99.90
51500;DHT22;39101;53.478;6.158;2022-09-09T14:30:39;18.70;99.90
51500;DHT22;39101;53.478;6.158;2022-09-09T14:33:06;18.60;99.90
51500;DHT22;39101;53.478;6.158;2022-09-09T14:35:31;18.50;99.90
51500;DHT22;39101;53.478;6.158;2022-09-09T14:37:59;18.20;99.90
51500;DHT22;39101;53.478;6.158;2022-09-09T14:40:26;18.00;99.90
51500;DHT22;39101;53.478;6.158;2022-09-09T14:42:53;17.70;99.90
51500;DHT22;39101;53.478;6.158;2022-09-09T14:45:19;17.60;99.90
51500;DHT22;39101;53.478;6.158;2022-09-09T14:47:46;17.60;99.90
51500;DHT22;39101;53.478;6.158;2022-09-09T14:50:12;17.60;99.90
51500;DHT22;39101;53.478;6.158;2022-09-09T14:52:39;17.70;99.90
51500;DHT22;39101;53.478;6.158;2022-09-09T14:55:05;17.70;99.90
51500;DHT22;39101;53.478;6.158;2022-09-09T14:57:31;17.70;99.90
51500;DHT22;39101;53.478;6.158;2022-09-09T14:59:57;17.70;99.90
51500;DHT22;39101;53.478;6.158;2022-09-09T15:02:23;17.70;99.90
51500;DHT22;39101;53.478;6.158;2022-09-09T15:04:48;17.60;99.90
51500;DHT22;39101;53.478;6.158;2022-09-09T15:07:16;17.50;99.90
51500;DHT22;39101;53.478;6.158;2022-09-09T15:09:42;17.40;99.90
51500;DHT22;39101;53.478;6.158;2022-09-09T15:12:08;17.30;99.90
51500;DHT22;39101;53.478;6.158;2022-09-09T15:14:34;17.30;99.90
51500;DHT22;39101;53.478;6.158;2022-09-09T15:17:00;17.30;99.90
51500;DHT22;39101;53.478;6.158;2022-09-09T15:19:26;17.30;99.90
51500;DHT22;39101;53.478;6.158;2022-09-09T15:21:52;17.30;99.90
51500;DHT22;39101;53.478;6.158;2022-09-09T15:24:17;17.30;99.90
51500;DHT22;39101;53.478;6.158;2022-09-09T15:26:43;17.30;99.90
51500;DHT22;39101;53.478;6.158;2022-09-09T15:29:09;17.30;99.90
51500;DHT22;39101;53.478;6.158;2022-09-09T15:31:35;17.30;99.90
51500;DHT22;39101;53.478;6.158;2022-09-09T15:34:03;17.30;99.90
51500;DHT22;39101;53.478;6.158;2022-09-09T15:36:31;17.30;99.90
51500;DHT22;39101;53.478;6.158;2022-09-09T15:38:58;17.30;99.90
51500;DHT22;39101;53.478;6.158;2022-09-09T15:41:24;17.40;99.90
51500;DHT22;39101;53.478;6.158;2022-09-09T15:43:54;17.40;99.90
51500;DHT22;39101;53.478;6.158;2022-09-09T15:46:24;17.40;99.90
51500;DHT22;39101;53.478;6.158;2022-09-09T15:48:53;17.40;99.90
51500;DHT22;39101;53.478;6.158;2022-09-09T15:51:19;17.40;99.90
51500;DHT22;39101;53.478;6.158;2022-09-09T15:53:45;17.40;99.90
51500;DHT22;39101;53.478;6.158;2022-09-09T15:56:11;17.40;99.90
51500;DHT22;39101;53.478;6.158;2022-09-09T15:58:37;17.40;99.90
51500;DHT22;39101;53.478;6.158;2022-09-09T16:01:04;17.40;99.90
51500;DHT22;39101;53.478;6.158;2022-09-09T16:03:34;17.40;99.90
51500;DHT22;39101;53.478;6.158;2022-09-09T16:06:00;17.40;99.90
51500;DHT22;39101;53.478;6.158;2022-09-09T16:08:35;17.40;99.90
51500;DHT22;39101;53.478;6.158;2022-09-09T16:11:09;17.40;99.90
51500;DHT22;39101;53.478;6.158;2022-09-09T16:13:39;17.40;99.90
51500;DHT22;39101;53.478;6.158;2022-09-09T16:16:06;17.40;99.90
51500;DHT22;39101;53.478;6.158;2022-09-09T16:18:42;17.30;99.90
51500;DHT22;39101;53.478;6.158;2022-09-09T16:21:13;17.40;99.90
51500;DHT22;39101;53.478;6.158;2022-09-09T16:23:39;17.40;99.90
51500;DHT22;39101;53.478;6.158;2022-09-09T16:26:05;17.40;99.90
51500;DHT22;39101;53.478;6.158;2022-09-09T16:28:31;17.40;99.90
51500;DHT22;39101;53.478;6.158;2022-09-09T16:30:57;17.40;99.90
51500;DHT22;39101;53.478;6.158;2022-09-09T16:33:24;17.30;99.90
51500;DHT22;39101;53.478;6.158;2022-09-09T16:35:51;17.20;99.90
51500;DHT22;39101;53.478;6.158;2022-09-09T16:38:16;17.00;99.90
51500;DHT22;39101;53.478;6.158;2022-09-09T16:40:42;16.90;99.90
51500;DHT22;39101;53.478;6.158;2022-09-09T16:43:08;16.80;99.90
51500;DHT22;39101;53.478;6.158;2022-09-09T16:45:42;16.80;99.90
51500;DHT22;39101;53.478;6.158;2022-09-09T16:48:07;16.70;99.90
51500;DHT22;39101;53.478;6.158;2022-09-09T16:50:33;16.70;99.90
51500;DHT22;39101;53.478;6.158;2022-09-09T16:52:58;16.60;99.90
51500;DHT22;39101;53.478;6.158;2022-09-09T16:55:24;16.60;99.90
51500;DHT22;39101;53.478;6.158;2022-09-09T16:57:51;16.70;99.90
51500;DHT22;39101;53.478;6.158;2022-09-09T17:00:17;16.60;99.90
51500;DHT22;39101;53.478;6.158;2022-09-09T17:02:43;16.60;99.90
51500;DHT22;39101;53.478;6.158;2022-09-09T17:05:10;16.60;99.90
51500;DHT22;39101;53.478;6.158;2022-09-09T17:07:37;16.70;99.90
51500;DHT22;39101;53.478;6.158;2022-09-09T17:10:05;16.70;99.90
51500;DHT22;39101;53.478;6.158;2022-09-09T17:12:32;16.80;99.90
51500;DHT22;39101;53.478;6.158;2022-09-09T17:14:58;16.80;99.90
51500;DHT22;39101;53.478;6.158;2022-09-09T17:17:26;16.80;99.90
51500;DHT22;39101;53.478;6.158;2022-09-09T17:19:52;16.80;99.90
51500;DHT22;39101;53.478;6.158;2022-09-09T17:22:18;16.80;99.90
51500;DHT22;39101;53.478;6.158;2022-09-09T17:24:46;16.80;99.90
51500;DHT22;39101;53.478;6.158;2022-09-09T17:27:11;16.80;99.90
51500;DHT22;39101;53.478;6.158;2022-09-09T17:29:38;16.80;99.90
51500;DHT22;39101;53.478;6.158;2022-09-09T17:32:04;16.80;99.90
51500;DHT22;39101;53.478;6.158;2022-09-09T17:34:31;16.80;99.90
51500;DHT22;39101;53.478;6.158;2022-09-09T17:36:56;16.70;99.90
51500;DHT22;39101;53.478;6.158;2022-09-09T17:39:22;16.70;99.90
51500;DHT22;39101;53.478;6.158;2022-09-09T17:41:48;16.70;99.90
51500;DHT22;39101;53.478;6.158;2022-09-09T17:44:14;16.60;99.90
51500;DHT22;39101;53.478;6.158;2022-09-09T17:46:42;16.60;99.90
51500;DHT22;39101;53.478;6.158;2022-09-09T17:49:15;16.60;99.90
51500;DHT22;39101;53.478;6.158;2022-09-09T17:51:43;16.60;99.90
51500;DHT22;39101;53.478;6.158;2022-09-09T17:54:18;16.60;99.90